sensor_id;sensor_type;location;lat;lon;timestamp;P1;durP1;ratioP1;P2;durP2;ratioP2
43706;SDS011;61348;53.392;-6.248;2023-04-06T00:00:49;10.13;;;2.38;;
43706;SDS011;61348;53.392;-6.248;2023-04-06T00:03:16;5.45;;;1.95;;
43706;SDS011;61348;53.392;-6.248;2023-04-06T00:05:43;6.75;;;1.90;;
43706;SDS011;61348;53.392;-6.248;2023-04-06T00:08:09;6.68;;;2.10;;
43706;SDS011;61348;53.392;-6.248;2023-04-06T00:10:36;5.97;;;1.88;;
43706;SDS011;61348;53.392;-6.248;2023-04-06T00:13:04;4.25;;;1.60;;
43706;SDS011;61348;53.392;-6.248;2023-04-06T00:15:31;5.20;;;2.42;;
43706;SDS011;61348;53.392;-6.248;2023-04-06T00:17:58;3.60;;;2.13;;
43706;SDS011;61348;53.392;-6.248;2023-04-06T00:20:25;5.15;;;1.98;;
43706;SDS011;61348;53.392;-6.248;2023-04-06T00:22:52;10.07;;;2.25;;
43706;SDS011;61348;53.392;-6.248;2023-04-06T00:25:18;5.80;;;2.55;;
43706;SDS011;61348;53.392;-6.248;2023-04-06T00:27:45;9.27;;;3.55;;
43706;SDS011;61348;53.392;-6.248;2023-04-06T00:30:12;3.45;;;2.10;;
43706;SDS011;61348;53.392;-6.248;2023-04-06T00:32:39;9.52;;;3.40;;
43706;SDS011;61348;53.392;-6.248;2023-04-06T00:35:06;12.98;;;3.45;;
43706;SDS011;61348;53.392;-6.248;2023-04-06T00:37:33;6.32;;;1.77;;
43706;SDS011;61348;53.392;-6.248;2023-04-06T00:39:59;5.90;;;1.75;;
43706;SDS011;61348;53.392;-6.248;2023-04-06T00:42:26;5.03;;;2.58;;
43706;SDS011;61348;53.392;-6.248;2023-04-06T00:47:21;11.95;;;2.15;;
43706;SDS011;61348;53.392;-6.248;2023-04-06T00:49:48;11.05;;;2.70;;
43706;SDS011;61348;53.392;-6.248;2023-04-06T00:52:15;9.30;;;1.70;;
43706;SDS011;61348;53.392;-6.248;2023-04-06T00:54:42;4.20;;;2.05;;
43706;SDS011;61348;53.392;-6.248;2023-04-06T00:57:09;8.93;;;3.58;;
43706;SDS011;61348;53.392;-6.248;2023-04-06T00:59:37;7.35;;;2.53;;
43706;SDS011;61348;53.392;-6.248;2023-04-06T01:02:04;6.10;;;2.35;;
43706;SDS011;61348;53.392;-6.248;2023-04-06T01:04:31;7.47;;;2.33;;
43706;SDS011;61348;53.392;-6.248;2023-04-06T01:06:58;9.77;;;2.30;;
43706;SDS011;61348;53.392;-6.248;2023-04-06T01:09:27;6.45;;;2.60;;
43706;SDS011;61348;53.392;-6.248;2023-04-06T01:11:56;8.20;;;1.88;;
43706;SDS011;61348;53.392;-6.248;2023-04-06T01:14:24;8.02;;;1.80;;
43706;SDS011;61348;53.392;-6.248;2023-04-06T01:16:52;6.35;;;2.13;;
43706;SDS011;61348;53.392;-6.248;2023-04-06T01:19:19;7.18;;;2.92;;
43706;SDS011;61348;53.392;-6.248;2023-04-06T01:21:47;16.13;;;3.58;;
43706;SDS011;61348;53.392;-6.248;2023-04-06T01:24:16;9.88;;;1.98;;
43706;SDS011;61348;53.392;-6.248;2023-04-06T01:26:43;8.82;;;2.03;;
43706;SDS011;61348;53.392;-6.248;2023-04-06T01:29:10;8.50;;;1.80;;
43706;SDS011;61348;53.392;-6.248;2023-04-06T01:31:37;10.02;;;2.55;;
43706;SDS011;61348;53.392;-6.248;2023-04-06T01:34:04;11.85;;;4.32;;
43706;SDS011;61348;53.392;-6.248;2023-04-06T01:36:31;5.97;;;1.98;;
43706;SDS011;61348;53.392;-6.248;2023-04-06T01:38:58;7.90;;;3.13;;
43706;SDS011;61348;53.392;-6.248;2023-04-06T01:41:26;4.57;;;2.20;;
43706;SDS011;61348;53.392;-6.248;2023-04-06T01:43:52;6.72;;;1.90;;
43706;SDS011;61348;53.392;-6.248;2023-04-06T01:46:20;6.97;;;2.22;;
43706;SDS011;61348;53.392;-6.248;2023-04-06T01:48:47;11.23;;;2.47;;
43706;SDS011;61348;53.392;-6.248;2023-04-06T01:51:15;6.60;;;1.98;;
43706;SDS011;61348;53.392;-6.248;2023-04-06T01:53:41;11.75;;;3.08;;
43706;SDS011;61348;53.392;-6.248;2023-04-06T01:56:08;8.10;;;1.80;;
43706;SDS011;61348;53.392;-6.248;2023-04-06T01:58:35;15.60;;;3.90;;
43706;SDS011;61348;53.392;-6.248;2023-04-06T02:01:02;4.85;;;1.55;;
43706;SDS011;61348;53.392;-6.248;2023-04-06T02:03:29;8.30;;;1.80;;
43706;SDS011;61348;53.392;-6.248;2023-04-06T02:05:57;8.70;;;2.10;;
43706;SDS011;61348;53.392;-6.248;2023-04-06T02:08:23;7.05;;;1.63;;
43706;SDS011;61348;53.392;-6.248;2023-04-06T02:10:50;8.20;;;1.80;;
43706;SDS011;61348;53.392;-6.248;2023-04-06T02:13:17;7.82;;;2.67;;
43706;SDS011;61348;53.392;-6.248;2023-04-06T02:15:43;8.98;;;2.80;;
43706;SDS011;61348;53.392;-6.248;2023-04-06T02:18:10;9.60;;;2.85;;
43706;SDS011;61348;53.392;-6.248;2023-04-06T02:20:37;7.88;;;2.33;;
43706;SDS011;61348;53.392;-6.248;2023-04-06T02:23:03;6.40;;;2.25;;
43706;SDS011;61348;53.392;-6.248;2023-04-06T02:25:30;14.52;;;3.38;;
43706;SDS011;61348;53.392;-6.248;2023-04-06T02:27:57;7.43;;;2.10;;
43706;SDS011;61348;53.392;-6.248;2023-04-06T02:30:23;9.25;;;2.88;;
43706;SDS011;61348;53.392;-6.248;2023-04-06T02:32:50;6.70;;;2.03;;
43706;SDS011;61348;53.392;-6.248;2023-04-06T02:35:17;9.35;;;2.95;;
43706;SDS011;61348;53.392;-6.248;2023-04-06T02:37:44;7.70;;;2.20;;
43706;SDS011;61348;53.392;-6.248;2023-04-06T02:40:11;8.13;;;2.25;;
43706;SDS011;61348;53.392;-6.248;2023-04-06T02:42:38;12.43;;;2.63;;
43706;SDS011;61348;53.392;-6.248;2023-04-06T02:45:04;7.70;;;2.50;;
43706;SDS011;61348;53.392;-6.248;2023-04-06T02:47:32;7.30;;;2.10;;
43706;SDS011;61348;53.392;-6.248;2023-04-06T02:49:59;9.68;;;3.35;;
43706;SDS011;61348;53.392;-6.248;2023-04-06T02:52:26;14.68;;;2.83;;
43706;SDS011;61348;53.392;-6.248;2023-04-06T02:54:53;7.63;;;2.25;;
43706;SDS011;61348;53.392;-6.248;2023-04-06T02:57:19;11.88;;;4.07;;
43706;SDS011;61348;53.392;-6.248;2023-04-06T02:59:46;6.75;;;2.78;;
43706;SDS011;61348;53.392;-6.248;2023-04-06T03:02:13;11.43;;;4.15;;
43706;SDS011;61348;53.392;-6.248;2023-04-06T03:04:40;5.45;;;2.63;;
43706;SDS011;61348;53.392;-6.248;2023-04-06T03:07:06;13.98;;;2.67;;
43706;SDS011;61348;53.392;-6.248;2023-04-06T03:09:33;13.70;;;4.32;;
43706;SDS011;61348;53.392;-6.248;2023-04-06T03:12:00;17.92;;;5.57;;
43706;SDS011;61348;53.392;-6.248;2023-04-06T03:14:27;13.30;;;3.67;;
43706;SDS011;61348;53.392;-6.248;2023-04-06T03:16:54;11.05;;;3.25;;
43706;SDS011;61348;53.392;-6.248;2023-04-06T03:19:21;7.85;;;2.17;;
43706;SDS011;61348;53.392;-6.248;2023-04-06T03:21:48;12.80;;;3.38;;
43706;SDS011;61348;53.392;-6.248;2023-04-06T03:24:14;12.77;;;3.00;;
43706;SDS011;61348;53.392;-6.248;2023-04-06T03:26:41;39.95;;;5.93;;
43706;SDS011;61348;53.392;-6.248;2023-04-06T03:29:08;7.13;;;2.53;;
43706;SDS011;61348;53.392;-6.248;2023-04-06T03:31:35;13.52;;;4.30;;
43706;SDS011;61348;53.392;-6.248;2023-04-06T03:34:02;8.43;;;3.03;;
43706;SDS011;61348;53.392;-6.248;2023-04-06T03:36:29;11.05;;;2.80;;
43706;SDS011;61348;53.392;-6.248;2023-04-06T03:38:56;9.63;;;2.90;;
43706;SDS011;61348;53.392;-6.248;2023-04-06T03:41:23;10.18;;;3.15;;
43706;SDS011;61348;53.392;-6.248;2023-04-06T03:43:51;5.03;;;2.28;;
43706;SDS011;61348;53.392;-6.248;2023-04-06T03:46:17;11.80;;;2.30;;
43706;SDS011;61348;53.392;-6.248;2023-04-06T03:48:45;17.00;;;2.40;;
43706;SDS011;61348;53.392;-6.248;2023-04-06T03:51:14;10.93;;;2.42;;
43706;SDS011;61348;53.392;-6.248;2023-04-06T03:53:41;19.58;;;3.33;;
43706;SDS011;61348;53.392;-6.248;2023-04-06T03:56:07;6.25;;;3.15;;
43706;SDS011;61348;53.392;-6.248;2023-04-06T03:58:34;13.40;;;2.45;;
43706;SDS011;61348;53.392;-6.248;2023-04-06T04:01:13;7.47;;;2.22;;
43706;SDS011;61348;53.392;-6.248;2023-04-06T04:03:39;8.23;;;2.00;;
43706;SDS011;61348;53.392;-6.248;2023-04-06T04:06:06;9.65;;;2.35;;
43706;SDS011;61348;53.392;-6.248;2023-04-06T04:08:33;11.52;;;2.30;;
43706;SDS011;61348;53.392;-6.248;2023-04-06T04:11:00;7.07;;;2.40;;
43706;SDS011;61348;53.392;-6.248;2023-04-06T04:13:26;12.38;;;3.22;;
43706;SDS011;61348;53.392;-6.248;2023-04-06T04:15:53;11.68;;;2.35;;
43706;SDS011;61348;53.392;-6.248;2023-04-06T04:18:20;9.32;;;2.42;;
43706;SDS011;61348;53.392;-6.248;2023-04-06T04:20:46;7.85;;;2.75;;
43706;SDS011;61348;53.392;-6.248;2023-04-06T04:23:13;11.35;;;2.80;;
43706;SDS011;61348;53.392;-6.248;2023-04-06T04:25:40;14.75;;;2.25;;
43706;SDS011;61348;53.392;-6.248;2023-04-06T04:28:07;11.32;;;2.50;;
43706;SDS011;61348;53.392;-6.248;2023-04-06T04:30:33;9.30;;;2.35;;
43706;SDS011;61348;53.392;-6.248;2023-04-06T04:33:00;8.48;;;2.10;;
43706;SDS011;61348;53.392;-6.248;2023-04-06T04:35:27;10.38;;;1.92;;
43706;SDS011;61348;53.392;-6.248;2023-04-06T04:37:54;6.40;;;2.35;;
43706;SDS011;61348;53.392;-6.248;2023-04-06T04:40:20;5.45;;;1.90;;
43706;SDS011;61348;53.392;-6.248;2023-04-06T04:42:48;8.75;;;3.38;;
43706;SDS011;61348;53.392;-6.248;2023-04-06T04:45:17;10.27;;;1.92;;
43706;SDS011;61348;53.392;-6.248;2023-04-06T04:47:43;6.93;;;2.60;;
43706;SDS011;61348;53.392;-6.248;2023-04-06T04:50:11;10.00;;;2.10;;
43706;SDS011;61348;53.392;-6.248;2023-04-06T04:52:37;10.18;;;2.33;;
43706;SDS011;61348;53.392;-6.248;2023-04-06T04:55:04;9.25;;;3.00;;
43706;SDS011;61348;53.392;-6.248;2023-04-06T04:57:31;8.52;;;1.75;;
43706;SDS011;61348;53.392;-6.248;2023-04-06T04:59:58;7.10;;;2.05;;
43706;SDS011;61348;53.392;-6.248;2023-04-06T05:02:24;9.82;;;2.78;;
43706;SDS011;61348;53.392;-6.248;2023-04-06T05:04:52;6.80;;;2.00;;
43706;SDS011;61348;53.392;-6.248;2023-04-06T05:07:18;8.48;;;1.90;;
43706;SDS011;61348;53.392;-6.248;2023-04-06T05:09:47;11.75;;;2.30;;
43706;SDS011;61348;53.392;-6.248;2023-04-06T05:12:14;7.88;;;1.50;;
43706;SDS011;61348;53.392;-6.248;2023-04-06T05:14:41;9.57;;;2.85;;
43706;SDS011;61348;53.392;-6.248;2023-04-06T05:17:08;7.53;;;2.10;;
43706;SDS011;61348;53.392;-6.248;2023-04-06T05:19:34;13.68;;;2.47;;
43706;SDS011;61348;53.392;-6.248;2023-04-06T05:22:01;7.00;;;1.98;;
43706;SDS011;61348;53.392;-6.248;2023-04-06T05:24:28;7.90;;;2.85;;
43706;SDS011;61348;53.392;-6.248;2023-04-06T05:26:55;12.80;;;4.78;;
43706;SDS011;61348;53.392;-6.248;2023-04-06T05:29:22;8.80;;;2.88;;
43706;SDS011;61348;53.392;-6.248;2023-04-06T05:31:48;7.50;;;2.58;;
43706;SDS011;61348;53.392;-6.248;2023-04-06T05:34:16;7.20;;;2.22;;
43706;SDS011;61348;53.392;-6.248;2023-04-06T05:36:43;8.18;;;2.45;;
43706;SDS011;61348;53.392;-6.248;2023-04-06T05:39:10;8.75;;;2.92;;
43706;SDS011;61348;53.392;-6.248;2023-04-06T05:41:38;8.75;;;2.20;;
43706;SDS011;61348;53.392;-6.248;2023-04-06T05:44:05;6.78;;;2.45;;
43706;SDS011;61348;53.392;-6.248;2023-04-06T05:46:32;14.77;;;2.50;;
43706;SDS011;61348;53.392;-6.248;2023-04-06T05:48:59;9.20;;;2.10;;
43706;SDS011;61348;53.392;-6.248;2023-04-06T05:51:25;5.07;;;2.30;;
43706;SDS011;61348;53.392;-6.248;2023-04-06T05:53:53;15.57;;;2.63;;
43706;SDS011;61348;53.392;-6.248;2023-04-06T05:56:20;11.00;;;2.67;;
43706;SDS011;61348;53.392;-6.248;2023-04-06T05:58:47;12.50;;;2.95;;
43706;SDS011;61348;53.392;-6.248;2023-04-06T06:01:14;7.28;;;2.10;;
43706;SDS011;61348;53.392;-6.248;2023-04-06T06:03:41;9.68;;;2.40;;
43706;SDS011;61348;53.392;-6.248;2023-04-06T06:06:08;9.02;;;2.58;;
43706;SDS011;61348;53.392;-6.248;2023-04-06T06:08:34;10.15;;;3.85;;
43706;SDS011;61348;53.392;-6.248;2023-04-06T06:11:01;12.43;;;2.30;;
43706;SDS011;61348;53.392;-6.248;2023-04-06T06:13:28;8.13;;;2.70;;
43706;SDS011;61348;53.392;-6.248;2023-04-06T06:15:55;15.45;;;4.35;;
43706;SDS011;61348;53.392;-6.248;2023-04-06T06:18:21;20.52;;;4.13;;
43706;SDS011;61348;53.392;-6.248;2023-04-06T06:20:48;14.50;;;3.35;;
43706;SDS011;61348;53.392;-6.248;2023-04-06T06:23:15;11.02;;;2.60;;
43706;SDS011;61348;53.392;-6.248;2023-04-06T06:25:42;7.38;;;2.88;;
43706;SDS011;61348;53.392;-6.248;2023-04-06T06:28:09;6.53;;;2.65;;
43706;SDS011;61348;53.392;-6.248;2023-04-06T06:30:35;9.35;;;2.97;;
43706;SDS011;61348;53.392;-6.248;2023-04-06T06:33:02;10.38;;;2.63;;
43706;SDS011;61348;53.392;-6.248;2023-04-06T06:35:29;7.35;;;3.22;;
43706;SDS011;61348;53.392;-6.248;2023-04-06T06:37:56;12.20;;;3.25;;
43706;SDS011;61348;53.392;-6.248;2023-04-06T06:40:23;6.13;;;2.40;;
43706;SDS011;61348;53.392;-6.248;2023-04-06T06:42:50;9.70;;;2.60;;
43706;SDS011;61348;53.392;-6.248;2023-04-06T06:45:17;6.95;;;2.38;;
43706;SDS011;61348;53.392;-6.248;2023-04-06T06:47:46;13.13;;;2.95;;
43706;SDS011;61348;53.392;-6.248;2023-04-06T06:50:13;8.63;;;2.28;;
43706;SDS011;61348;53.392;-6.248;2023-04-06T06:52:40;6.60;;;1.88;;
43706;SDS011;61348;53.392;-6.248;2023-04-06T06:55:08;8.73;;;2.08;;
43706;SDS011;61348;53.392;-6.248;2023-04-06T06:57:36;7.72;;;2.10;;
43706;SDS011;61348;53.392;-6.248;2023-04-06T07:00:05;5.78;;;2.05;;
43706;SDS011;61348;53.392;-6.248;2023-04-06T07:02:34;6.90;;;1.63;;
43706;SDS011;61348;53.392;-6.248;2023-04-06T07:05:02;8.40;;;1.63;;
43706;SDS011;61348;53.392;-6.248;2023-04-06T07:07:41;6.18;;;1.98;;
43706;SDS011;61348;53.392;-6.248;2023-04-06T07:10:08;5.10;;;1.95;;
43706;SDS011;61348;53.392;-6.248;2023-04-06T07:12:35;7.68;;;1.67;;
43706;SDS011;61348;53.392;-6.248;2023-04-06T07:15:02;5.57;;;1.35;;
43706;SDS011;61348;53.392;-6.248;2023-04-06T07:17:30;5.25;;;1.55;;
43706;SDS011;61348;53.392;-6.248;2023-04-06T07:19:56;7.72;;;2.55;;
43706;SDS011;61348;53.392;-6.248;2023-04-06T07:22:24;7.53;;;1.55;;
43706;SDS011;61348;53.392;-6.248;2023-04-06T07:24:51;3.70;;;1.40;;
43706;SDS011;61348;53.392;-6.248;2023-04-06T07:27:18;4.82;;;1.80;;
43706;SDS011;61348;53.392;-6.248;2023-04-06T07:29:45;8.45;;;2.63;;
43706;SDS011;61348;53.392;-6.248;2023-04-06T07:32:12;5.97;;;2.03;;
43706;SDS011;61348;53.392;-6.248;2023-04-06T07:34:39;7.55;;;2.17;;
43706;SDS011;61348;53.392;-6.248;2023-04-06T07:37:06;9.85;;;2.55;;
43706;SDS011;61348;53.392;-6.248;2023-04-06T07:39:33;5.40;;;1.88;;
43706;SDS011;61348;53.392;-6.248;2023-04-06T07:42:00;5.30;;;1.92;;
43706;SDS011;61348;53.392;-6.248;2023-04-06T07:44:27;5.55;;;1.40;;
43706;SDS011;61348;53.392;-6.248;2023-04-06T07:46:54;4.38;;;1.83;;
43706;SDS011;61348;53.392;-6.248;2023-04-06T07:49:21;8.13;;;1.70;;
43706;SDS011;61348;53.392;-6.248;2023-04-06T07:51:49;2.85;;;1.30;;
43706;SDS011;61348;53.392;-6.248;2023-04-06T07:54:15;3.42;;;1.30;;
43706;SDS011;61348;53.392;-6.248;2023-04-06T07:56:42;6.75;;;1.88;;
43706;SDS011;61348;53.392;-6.248;2023-04-06T07:59:09;4.30;;;1.65;;
43706;SDS011;61348;53.392;-6.248;2023-04-06T08:01:37;6.10;;;1.77;;
43706;SDS011;61348;53.392;-6.248;2023-04-06T08:04:04;5.68;;;1.88;;
43706;SDS011;61348;53.392;-6.248;2023-04-06T08:06:31;5.60;;;2.25;;
43706;SDS011;61348;53.392;-6.248;2023-04-06T08:08:58;4.28;;;1.50;;
43706;SDS011;61348;53.392;-6.248;2023-04-06T08:11:25;8.90;;;1.73;;
43706;SDS011;61348;53.392;-6.248;2023-04-06T08:13:53;10.98;;;3.33;;
43706;SDS011;61348;53.392;-6.248;2023-04-06T08:16:22;4.43;;;1.63;;
43706;SDS011;61348;53.392;-6.248;2023-04-06T08:18:49;9.65;;;1.85;;
43706;SDS011;61348;53.392;-6.248;2023-04-06T08:21:15;2.08;;;1.13;;
43706;SDS011;61348;53.392;-6.248;2023-04-06T08:23:42;5.65;;;1.40;;
43706;SDS011;61348;53.392;-6.248;2023-04-06T08:26:09;4.63;;;1.35;;
43706;SDS011;61348;53.392;-6.248;2023-04-06T08:28:36;3.83;;;1.25;;
43706;SDS011;61348;53.392;-6.248;2023-04-06T08:31:03;5.25;;;1.38;;
43706;SDS011;61348;53.392;-6.248;2023-04-06T08:33:33;2.90;;;0.90;;
43706;SDS011;61348;53.392;-6.248;2023-04-06T08:38:36;5.03;;;1.70;;
43706;SDS011;61348;53.392;-6.248;2023-04-06T08:41:07;9.95;;;1.60;;
43706;SDS011;61348;53.392;-6.248;2023-04-06T08:43:44;4.65;;;1.63;;
43706;SDS011;61348;53.392;-6.248;2023-04-06T08:46:13;3.80;;;1.92;;
43706;SDS011;61348;53.392;-6.248;2023-04-06T08:48:41;4.40;;;1.35;;
43706;SDS011;61348;53.392;-6.248;2023-04-06T08:51:09;6.95;;;1.73;;
43706;SDS011;61348;53.392;-6.248;2023-04-06T08:53:36;5.63;;;1.85;;
43706;SDS011;61348;53.392;-6.248;2023-04-06T08:56:04;8.43;;;1.88;;
43706;SDS011;61348;53.392;-6.248;2023-04-06T08:58:35;3.83;;;1.67;;
43706;SDS011;61348;53.392;-6.248;2023-04-06T09:01:07;4.55;;;1.80;;
43706;SDS011;61348;53.392;-6.248;2023-04-06T09:03:39;2.70;;;1.10;;
43706;SDS011;61348;53.392;-6.248;2023-04-06T09:06:07;9.20;;;1.83;;
43706;SDS011;61348;53.392;-6.248;2023-04-06T09:08:35;4.43;;;1.13;;
43706;SDS011;61348;53.392;-6.248;2023-04-06T09:11:04;5.13;;;1.17;;
43706;SDS011;61348;53.392;-6.248;2023-04-06T09:13:31;7.90;;;1.63;;
43706;SDS011;61348;53.392;-6.248;2023-04-06T09:15:59;5.50;;;2.33;;
43706;SDS011;61348;53.392;-6.248;2023-04-06T09:18:30;6.57;;;2.30;;
43706;SDS011;61348;53.392;-6.248;2023-04-06T09:20:58;5.90;;;1.70;;
43706;SDS011;61348;53.392;-6.248;2023-04-06T09:23:29;5.43;;;1.80;;
43706;SDS011;61348;53.392;-6.248;2023-04-06T09:28:53;3.72;;;1.42;;
43706;SDS011;61348;53.392;-6.248;2023-04-06T09:31:22;5.43;;;1.70;;
43706;SDS011;61348;53.392;-6.248;2023-04-06T09:33:52;6.20;;;1.58;;
43706;SDS011;61348;53.392;-6.248;2023-04-06T09:36:29;6.00;;;1.50;;
43706;SDS011;61348;53.392;-6.248;2023-04-06T09:39:01;6.88;;;1.70;;
43706;SDS011;61348;53.392;-6.248;2023-04-06T09:41:33;8.20;;;1.92;;
43706;SDS011;61348;53.392;-6.248;2023-04-06T09:44:02;5.70;;;2.08;;
43706;SDS011;61348;53.392;-6.248;2023-04-06T09:46:36;13.85;;;3.92;;
43706;SDS011;61348;53.392;-6.248;2023-04-06T09:49:28;3.55;;;1.35;;
43706;SDS011;61348;53.392;-6.248;2023-04-06T09:52:03;5.45;;;1.77;;
43706;SDS011;61348;53.392;-6.248;2023-04-06T09:54:33;4.65;;;1.60;;
43706;SDS011;61348;53.392;-6.248;2023-04-06T09:57:10;2.97;;;1.38;;
43706;SDS011;61348;53.392;-6.248;2023-04-06T10:00:03;11.75;;;1.95;;
43706;SDS011;61348;53.392;-6.248;2023-04-06T10:03:02;5.95;;;2.55;;
43706;SDS011;61348;53.392;-6.248;2023-04-06T10:05:37;2.88;;;1.00;;
43706;SDS011;61348;53.392;-6.248;2023-04-06T10:08:22;8.10;;;1.80;;
43706;SDS011;61348;53.392;-6.248;2023-04-06T10:10:51;9.77;;;2.00;;
43706;SDS011;61348;53.392;-6.248;2023-04-06T10:13:18;2.70;;;1.02;;
43706;SDS011;61348;53.392;-6.248;2023-04-06T10:15:45;7.25;;;1.15;;
43706;SDS011;61348;53.392;-6.248;2023-04-06T10:18:13;8.50;;;1.50;;
43706;SDS011;61348;53.392;-6.248;2023-04-06T10:20:49;2.08;;;0.82;;
43706;SDS011;61348;53.392;-6.248;2023-04-06T10:23:22;8.20;;;1.63;;
43706;SDS011;61348;53.392;-6.248;2023-04-06T10:25:56;3.78;;;1.70;;
43706;SDS011;61348;53.392;-6.248;2023-04-06T10:28:25;5.30;;;0.93;;
43706;SDS011;61348;53.392;-6.248;2023-04-06T10:30:58;3.80;;;1.27;;
43706;SDS011;61348;53.392;-6.248;2023-04-06T10:33:27;4.22;;;1.17;;
43706;SDS011;61348;53.392;-6.248;2023-04-06T10:35:54;2.33;;;0.90;;
43706;SDS011;61348;53.392;-6.248;2023-04-06T10:38:33;4.63;;;0.90;;
43706;SDS011;61348;53.392;-6.248;2023-04-06T10:41:09;7.90;;;1.00;;
43706;SDS011;61348;53.392;-6.248;2023-04-06T10:46:05;4.18;;;1.75;;
43706;SDS011;61348;53.392;-6.248;2023-04-06T10:48:37;5.45;;;1.17;;
43706;SDS011;61348;53.392;-6.248;2023-04-06T10:51:12;3.90;;;1.17;;
43706;SDS011;61348;53.392;-6.248;2023-04-06T10:53:44;8.07;;;1.00;;
43706;SDS011;61348;53.392;-6.248;2023-04-06T10:56:13;10.43;;;1.58;;
43706;SDS011;61348;53.392;-6.248;2023-04-06T10:58:45;5.95;;;2.00;;
43706;SDS011;61348;53.392;-6.248;2023-04-06T11:01:15;3.33;;;1.30;;
43706;SDS011;61348;53.392;-6.248;2023-04-06T11:03:44;5.28;;;1.10;;
43706;SDS011;61348;53.392;-6.248;2023-04-06T11:06:22;2.50;;;0.98;;
43706;SDS011;61348;53.392;-6.248;2023-04-06T11:08:50;5.60;;;1.20;;
43706;SDS011;61348;53.392;-6.248;2023-04-06T11:11:18;3.92;;;1.27;;
43706;SDS011;61348;53.392;-6.248;2023-04-06T11:16:18;4.13;;;1.00;;
43706;SDS011;61348;53.392;-6.248;2023-04-06T11:21:20;4.47;;;0.80;;
43706;SDS011;61348;53.392;-6.248;2023-04-06T11:24:04;4.22;;;0.90;;
43706;SDS011;61348;53.392;-6.248;2023-04-06T11:26:36;9.23;;;0.80;;
43706;SDS011;61348;53.392;-6.248;2023-04-06T11:29:05;3.30;;;0.80;;
43706;SDS011;61348;53.392;-6.248;2023-04-06T11:31:42;5.43;;;0.80;;
43706;SDS011;61348;53.392;-6.248;2023-04-06T11:34:13;3.45;;;1.13;;
43706;SDS011;61348;53.392;-6.248;2023-04-06T11:36:43;5.05;;;1.10;;
43706;SDS011;61348;53.392;-6.248;2023-04-06T11:39:12;7.95;;;1.23;;
43706;SDS011;61348;53.392;-6.248;2023-04-06T11:41:53;2.58;;;0.90;;
43706;SDS011;61348;53.392;-6.248;2023-04-06T11:44:34;5.43;;;1.58;;
43706;SDS011;61348;53.392;-6.248;2023-04-06T11:47:03;3.30;;;1.05;;
43706;SDS011;61348;53.392;-6.248;2023-04-06T11:49:31;3.40;;;1.10;;
43706;SDS011;61348;53.392;-6.248;2023-04-06T11:52:00;5.55;;;1.20;;
43706;SDS011;61348;53.392;-6.248;2023-04-06T11:54:34;3.28;;;0.70;;
43706;SDS011;61348;53.392;-6.248;2023-04-06T11:57:04;3.47;;;1.13;;
43706;SDS011;61348;53.392;-6.248;2023-04-06T11:59:32;3.10;;;1.20;;
43706;SDS011;61348;53.392;-6.248;2023-04-06T12:01:59;3.05;;;0.85;;
43706;SDS011;61348;53.392;-6.248;2023-04-06T12:04:27;3.95;;;1.50;;
43706;SDS011;61348;53.392;-6.248;2023-04-06T12:06:54;3.03;;;0.80;;
43706;SDS011;61348;53.392;-6.248;2023-04-06T12:09:21;5.50;;;0.95;;
43706;SDS011;61348;53.392;-6.248;2023-04-06T12:11:48;3.70;;;0.55;;
43706;SDS011;61348;53.392;-6.248;2023-04-06T12:14:15;4.25;;;1.00;;
43706;SDS011;61348;53.392;-6.248;2023-04-06T12:16:42;3.15;;;0.80;;
43706;SDS011;61348;53.392;-6.248;2023-04-06T12:19:10;3.28;;;1.15;;
43706;SDS011;61348;53.392;-6.248;2023-04-06T12:21:36;3.03;;;1.40;;
43706;SDS011;61348;53.392;-6.248;2023-04-06T12:24:04;2.17;;;0.55;;
43706;SDS011;61348;53.392;-6.248;2023-04-06T12:26:31;4.90;;;1.48;;
43706;SDS011;61348;53.392;-6.248;2023-04-06T12:28:59;4.00;;;1.70;;
43706;SDS011;61348;53.392;-6.248;2023-04-06T12:31:35;2.20;;;0.77;;
43706;SDS011;61348;53.392;-6.248;2023-04-06T12:34:05;6.20;;;1.58;;
43706;SDS011;61348;53.392;-6.248;2023-04-06T12:36:32;2.72;;;1.00;;
43706;SDS011;61348;53.392;-6.248;2023-04-06T12:39:00;6.28;;;1.60;;
43706;SDS011;61348;53.392;-6.248;2023-04-06T12:41:27;3.75;;;0.68;;
43706;SDS011;61348;53.392;-6.248;2023-04-06T12:43:54;4.25;;;1.10;;
43706;SDS011;61348;53.392;-6.248;2023-04-06T12:46:22;4.85;;;0.80;;
43706;SDS011;61348;53.392;-6.248;2023-04-06T12:48:50;5.88;;;0.93;;
43706;SDS011;61348;53.392;-6.248;2023-04-06T12:51:20;6.80;;;2.05;;
43706;SDS011;61348;53.392;-6.248;2023-04-06T12:53:46;5.07;;;2.08;;
43706;SDS011;61348;53.392;-6.248;2023-04-06T12:56:14;1.58;;;0.85;;
43706;SDS011;61348;53.392;-6.248;2023-04-06T12:58:47;5.30;;;1.70;;
43706;SDS011;61348;53.392;-6.248;2023-04-06T13:01:14;6.97;;;1.70;;
43706;SDS011;61348;53.392;-6.248;2023-04-06T13:03:41;6.07;;;1.40;;
43706;SDS011;61348;53.392;-6.248;2023-04-06T13:06:08;2.90;;;0.80;;
43706;SDS011;61348;53.392;-6.248;2023-04-06T13:08:36;7.20;;;0.90;;
43706;SDS011;61348;53.392;-6.248;2023-04-06T13:11:04;6.07;;;1.30;;
43706;SDS011;61348;53.392;-6.248;2023-04-06T13:13:34;2.55;;;1.15;;
43706;SDS011;61348;53.392;-6.248;2023-04-06T13:16:06;3.35;;;1.30;;
43706;SDS011;61348;53.392;-6.248;2023-04-06T13:18:34;2.60;;;0.68;;
43706;SDS011;61348;53.392;-6.248;2023-04-06T13:21:03;2.38;;;0.63;;
43706;SDS011;61348;53.392;-6.248;2023-04-06T13:23:30;3.42;;;1.10;;
43706;SDS011;61348;53.392;-6.248;2023-04-06T13:25:58;3.78;;;0.98;;
43706;SDS011;61348;53.392;-6.248;2023-04-06T13:28:32;3.88;;;0.65;;
43706;SDS011;61348;53.392;-6.248;2023-04-06T13:31:01;1.67;;;0.80;;
43706;SDS011;61348;53.392;-6.248;2023-04-06T13:33:29;2.90;;;1.42;;
43706;SDS011;61348;53.392;-6.248;2023-04-06T13:35:57;2.08;;;0.60;;
43706;SDS011;61348;53.392;-6.248;2023-04-06T13:38:24;2.50;;;0.60;;
43706;SDS011;61348;53.392;-6.248;2023-04-06T13:40:51;2.70;;;0.95;;
43706;SDS011;61348;53.392;-6.248;2023-04-06T13:43:18;2.05;;;0.60;;
43706;SDS011;61348;53.392;-6.248;2023-04-06T13:45:50;2.28;;;0.60;;
43706;SDS011;61348;53.392;-6.248;2023-04-06T13:48:18;4.07;;;1.85;;
43706;SDS011;61348;53.392;-6.248;2023-04-06T13:50:45;1.75;;;0.60;;
43706;SDS011;61348;53.392;-6.248;2023-04-06T13:53:12;3.42;;;0.90;;
43706;SDS011;61348;53.392;-6.248;2023-04-06T13:55:39;2.85;;;0.50;;
43706;SDS011;61348;53.392;-6.248;2023-04-06T13:58:07;2.53;;;1.10;;
43706;SDS011;61348;53.392;-6.248;2023-04-06T14:00:34;4.13;;;0.50;;
43706;SDS011;61348;53.392;-6.248;2023-04-06T14:03:01;1.83;;;0.60;;
43706;SDS011;61348;53.392;-6.248;2023-04-06T14:05:32;1.50;;;0.60;;
43706;SDS011;61348;53.392;-6.248;2023-04-06T14:07:59;3.53;;;0.50;;
43706;SDS011;61348;53.392;-6.248;2023-04-06T14:10:26;5.28;;;1.13;;
43706;SDS011;61348;53.392;-6.248;2023-04-06T14:12:54;2.45;;;0.57;;
43706;SDS011;61348;53.392;-6.248;2023-04-06T14:15:22;3.28;;;0.80;;
43706;SDS011;61348;53.392;-6.248;2023-04-06T14:17:50;2.17;;;0.80;;
43706;SDS011;61348;53.392;-6.248;2023-04-06T14:20:18;1.80;;;0.40;;
43706;SDS011;61348;53.392;-6.248;2023-04-06T14:22:45;2.58;;;1.20;;
43706;SDS011;61348;53.392;-6.248;2023-04-06T14:25:13;1.92;;;0.70;;
43706;SDS011;61348;53.392;-6.248;2023-04-06T14:27:39;2.03;;;1.10;;
43706;SDS011;61348;53.392;-6.248;2023-04-06T14:30:07;2.45;;;1.20;;
43706;SDS011;61348;53.392;-6.248;2023-04-06T14:32:34;2.50;;;0.90;;
43706;SDS011;61348;53.392;-6.248;2023-04-06T14:35:06;3.53;;;0.65;;
43706;SDS011;61348;53.392;-6.248;2023-04-06T14:37:33;5.90;;;1.60;;
43706;SDS011;61348;53.392;-6.248;2023-04-06T14:40:00;3.00;;;1.55;;
43706;SDS011;61348;53.392;-6.248;2023-04-06T14:42:28;1.45;;;0.50;;
43706;SDS011;61348;53.392;-6.248;2023-04-06T14:44:54;7.38;;;2.55;;
43706;SDS011;61348;53.392;-6.248;2023-04-06T14:47:21;7.93;;;1.13;;
43706;SDS011;61348;53.392;-6.248;2023-04-06T14:49:51;4.68;;;0.55;;
43706;SDS011;61348;53.392;-6.248;2023-04-06T14:52:19;4.57;;;0.95;;
43706;SDS011;61348;53.392;-6.248;2023-04-06T14:54:46;1.70;;;0.43;;